Finley, New South Wales

1:50 PM EST on July 24, 2014 (GMT +1000)
Wangaratta (YWGT) Elev 502 ft | 36.42 °S, 146.31 °E | Change Station

Current weather conditions updated 50 minutes ago

Rain
Rain
54 °F
Feels Like 54 °F
N
6
Wind Variable Wind from East
Gusts mph

Today is forecast to be Warmer than yesterday. Showers.

Today
High -- | Low -- °F
--% Chance of Precip.
Yesterday
High -- | Low -- °F
Precip. -- in
7:20 AM 5:28 PM
Waning Crescent, 7% visible
Pressure 30.01 in
Visibility -9999.0 miles
Clouds
Dew Point 48 °F
Humidity 82%
Rainfall 0.00 in
Snow Depth Not available.
UV Not available.
Pollen Not available.
Air Quality Not available.
Flu Activity Not available.
METAR YWGT 240300Z AUTO 09005KT //// // ////// 12/09 Q1016

More Conditions Fewer Conditions

Pressure 30.01 in
Visibility -9999.0 miles
Clouds
Dew Point 48 °F
Humidity 82%
Rainfall 0.00 in
Snow Depth Not available.
UV Not available.
Pollen Not available.
Air Quality Not available.
Flu Activity Not available.
METAR YWGT 240300Z AUTO 09005KT //// // ////// 12/09 Q1016

More Conditions Fewer Conditions

10-Day Weather Forecast

Almanac

Astronomy

Jul. 24, 2014 Rise Set
Actual Time 7:20 AM EST 5:28 PM EST
Civil Twilight 6:52 AM EST 5:55 PM EST
Nautical Twilight 6:21 AM EST 6:26 PM EST
Astronomical Twilight 5:50 AM EST 6:57 PM EST
Moon 4:52 AM EST 3:17 PM EST
Length of Visible Light 11h 03m
Length of Day
10h 08m
Tomorrow will be 1m 24s longer.
Waning Crescent, 7% of the Moon is Illuminated
Jul 23
Waning Crescent
Jul 26
New
Aug 3
First Quarter
Aug 10
Full
Aug 17
Last Quarter

Yesterday's Extremes

Country Highs Country Lows

Community

WunderPhotos

Upload Photos

1,736,891 photos uploaded!

Nearby

Snow Depth

Not available.

Earthquake Activity

City Distance Mag. Time & Date
No recent earthquake activity has been reported nearby.
Minimum magnitude displayed is 2.5.

Coastal Water Temperatures

Place Temperature
No Stations Reporting

Nearby Weather Stations

There are no personal weather stations in this area.